sensor_id;sensor_type;location;lat;lon;timestamp;pressure;altitude;pressure_sealevel;temperature;humidity
70304;BME280;57712;48.752;11.348;2023-02-15T00:01:47;99027.78;;;-0.59;100.00
70304;BME280;57712;48.752;11.348;2023-02-15T00:04:15;99027.41;;;-0.66;100.00
70304;BME280;57712;48.752;11.348;2023-02-15T00:06:42;99021.06;;;-0.70;100.00
70304;BME280;57712;48.752;11.348;2023-02-15T00:09:10;99024.25;;;-0.90;100.00
70304;BME280;57712;48.752;11.348;2023-02-15T00:11:37;99007.63;;;-0.92;100.00
70304;BME280;57712;48.752;11.348;2023-02-15T00:14:21;99006.63;;;-0.96;100.00
70304;BME280;57712;48.752;11.348;2023-02-15T00:16:50;99010.31;;;-0.92;100.00
70304;BME280;57712;48.752;11.348;2023-02-15T00:19:19;99013.34;;;-0.85;100.00
70304;BME280;57712;48.752;11.348;2023-02-15T00:21:47;99016.81;;;-0.93;100.00
70304;BME280;57712;48.752;11.348;2023-02-15T00:24:16;99018.50;;;-0.75;100.00
70304;BME280;57712;48.752;11.348;2023-02-15T00:26:43;99006.03;;;-0.93;100.00
70304;BME280;57712;48.752;11.348;2023-02-15T00:29:11;99015.06;;;-0.89;100.00
70304;BME280;57712;48.752;11.348;2023-02-15T00:31:38;99017.41;;;-0.96;100.00
70304;BME280;57712;48.752;11.348;2023-02-15T00:34:13;99012.22;;;-0.93;100.00
70304;BME280;57712;48.752;11.348;2023-02-15T00:36:41;99010.31;;;-0.92;100.00
70304;BME280;57712;48.752;11.348;2023-02-15T00:39:09;99012.88;;;-1.09;100.00
70304;BME280;57712;48.752;11.348;2023-02-15T00:41:36;99006.22;;;-0.90;100.00
70304;BME280;57712;48.752;11.348;2023-02-15T00:44:03;99004.88;;;-1.01;100.00
70304;BME280;57712;48.752;11.348;2023-02-15T00:46:30;98994.91;;;-1.00;100.00
70304;BME280;57712;48.752;11.348;2023-02-15T00:48:57;99003.84;;;-0.91;100.00
70304;BME280;57712;48.752;11.348;2023-02-15T00:51:25;99000.91;;;-1.03;100.00
70304;BME280;57712;48.752;11.348;2023-02-15T00:53:52;99004.66;;;-1.04;100.00
70304;BME280;57712;48.752;11.348;2023-02-15T00:56:18;98998.25;;;-0.95;100.00
70304;BME280;57712;48.752;11.348;2023-02-15T00:58:45;99003.59;;;-0.81;100.00
70304;BME280;57712;48.752;11.348;2023-02-15T01:01:15;99007.13;;;-0.94;100.00
70304;BME280;57712;48.752;11.348;2023-02-15T01:03:43;99002.00;;;-0.82;100.00
70304;BME280;57712;48.752;11.348;2023-02-15T01:06:10;99002.25;;;-0.92;100.00
70304;BME280;57712;48.752;11.348;2023-02-15T01:08:37;98996.75;;;-1.09;100.00
70304;BME280;57712;48.752;11.348;2023-02-15T01:11:06;98993.81;;;-0.99;100.00
70304;BME280;57712;48.752;11.348;2023-02-15T01:13:33;98983.78;;;-1.07;100.00
70304;BME280;57712;48.752;11.348;2023-02-15T01:16:00;98986.38;;;-1.02;100.00
70304;BME280;57712;48.752;11.348;2023-02-15T01:18:29;98985.75;;;-0.99;100.00
70304;BME280;57712;48.752;11.348;2023-02-15T01:20:56;98969.72;;;-1.04;100.00
70304;BME280;57712;48.752;11.348;2023-02-15T01:23:23;98968.91;;;-1.27;100.00
70304;BME280;57712;48.752;11.348;2023-02-15T01:25:49;98971.69;;;-1.19;100.00
70304;BME280;57712;48.752;11.348;2023-02-15T01:28:16;98969.38;;;-1.11;100.00
70304;BME280;57712;48.752;11.348;2023-02-15T01:30:43;98968.09;;;-1.14;100.00
70304;BME280;57712;48.752;11.348;2023-02-15T01:33:10;98971.25;;;-1.12;100.00
70304;BME280;57712;48.752;11.348;2023-02-15T01:35:45;98959.09;;;-1.09;100.00
70304;BME280;57712;48.752;11.348;2023-02-15T01:38:14;98964.47;;;-1.09;100.00
70304;BME280;57712;48.752;11.348;2023-02-15T01:40:40;98961.72;;;-1.18;100.00
70304;BME280;57712;48.752;11.348;2023-02-15T01:43:10;98963.00;;;-1.16;100.00
70304;BME280;57712;48.752;11.348;2023-02-15T01:45:39;98961.28;;;-1.34;100.00
70304;BME280;57712;48.752;11.348;2023-02-15T01:48:19;98957.81;;;-1.34;100.00
70304;BME280;57712;48.752;11.348;2023-02-15T01:50:55;98958.63;;;-1.34;100.00
70304;BME280;57712;48.752;11.348;2023-02-15T01:53:27;98953.72;;;-1.32;100.00
70304;BME280;57712;48.752;11.348;2023-02-15T01:56:08;98948.69;;;-1.47;100.00
70304;BME280;57712;48.752;11.348;2023-02-15T01:58:38;98948.19;;;-1.49;100.00
70304;BME280;57712;48.752;11.348;2023-02-15T02:01:07;98947.00;;;-1.21;100.00
70304;BME280;57712;48.752;11.348;2023-02-15T02:06:39;98936.25;;;-1.43;100.00
70304;BME280;57712;48.752;11.348;2023-02-15T02:09:06;98934.22;;;-1.37;100.00
70304;BME280;57712;48.752;11.348;2023-02-15T02:11:34;98929.09;;;-1.25;100.00
70304;BME280;57712;48.752;11.348;2023-02-15T02:14:01;98930.09;;;-1.21;100.00
70304;BME280;57712;48.752;11.348;2023-02-15T02:25:04;98928.53;;;-1.36;100.00
70304;BME280;57712;48.752;11.348;2023-02-15T02:27:50;98920.38;;;-1.31;100.00
70304;BME280;57712;48.752;11.348;2023-02-15T02:30:38;98918.06;;;-1.24;100.00
70304;BME280;57712;48.752;11.348;2023-02-15T02:38:42;98927.56;;;-1.62;100.00
70304;BME280;57712;48.752;11.348;2023-02-15T02:44:47;98920.59;;;-1.19;100.00
70304;BME280;57712;48.752;11.348;2023-02-15T02:47:23;98923.78;;;-1.39;100.00
70304;BME280;57712;48.752;11.348;2023-02-15T02:50:06;98931.75;;;-1.48;100.00
70304;BME280;57712;48.752;11.348;2023-02-15T02:55:08;98929.38;;;-1.49;100.00
70304;BME280;57712;48.752;11.348;2023-02-15T02:57:37;98935.38;;;-1.52;100.00
70304;BME280;57712;48.752;11.348;2023-02-15T03:00:08;98925.75;;;-1.31;100.00
70304;BME280;57712;48.752;11.348;2023-02-15T03:02:38;98921.16;;;-1.30;100.00
70304;BME280;57712;48.752;11.348;2023-02-15T03:05:13;98932.28;;;-1.23;100.00
70304;BME280;57712;48.752;11.348;2023-02-15T03:07:46;98923.72;;;-1.25;100.00
70304;BME280;57712;48.752;11.348;2023-02-15T03:10:15;98930.69;;;-1.24;100.00
70304;BME280;57712;48.752;11.348;2023-02-15T03:12:42;98925.00;;;-1.45;100.00
70304;BME280;57712;48.752;11.348;2023-02-15T03:15:12;98915.47;;;-1.29;100.00
70304;BME280;57712;48.752;11.348;2023-02-15T03:17:43;98921.06;;;-1.61;100.00
70304;BME280;57712;48.752;11.348;2023-02-15T03:20:20;98912.66;;;-1.46;100.00
70304;BME280;57712;48.752;11.348;2023-02-15T03:22:55;98919.34;;;-1.43;100.00
70304;BME280;57712;48.752;11.348;2023-02-15T03:25:34;98911.38;;;-1.26;100.00
70304;BME280;57712;48.752;11.348;2023-02-15T03:28:06;98912.53;;;-1.19;100.00
70304;BME280;57712;48.752;11.348;2023-02-15T03:30:34;98914.19;;;-1.31;100.00
70304;BME280;57712;48.752;11.348;2023-02-15T03:33:02;98918.66;;;-1.27;100.00
70304;BME280;57712;48.752;11.348;2023-02-15T03:35:48;98914.25;;;-1.23;100.00
70304;BME280;57712;48.752;11.348;2023-02-15T03:38:20;98919.88;;;-1.10;100.00
70304;BME280;57712;48.752;11.348;2023-02-15T03:40:53;98914.13;;;-1.18;100.00
70304;BME280;57712;48.752;11.348;2023-02-15T03:43:43;98913.03;;;-1.17;100.00
70304;BME280;57712;48.752;11.348;2023-02-15T03:46:29;98905.16;;;-1.35;100.00
70304;BME280;57712;48.752;11.348;2023-02-15T03:49:04;98907.59;;;-1.25;100.00
70304;BME280;57712;48.752;11.348;2023-02-15T03:51:37;98903.38;;;-1.18;100.00
70304;BME280;57712;48.752;11.348;2023-02-15T03:54:08;98907.31;;;-1.24;100.00
70304;BME280;57712;48.752;11.348;2023-02-15T03:56:38;98907.97;;;-1.18;100.00
70304;BME280;57712;48.752;11.348;2023-02-15T03:59:05;98902.66;;;-1.32;100.00
70304;BME280;57712;48.752;11.348;2023-02-15T04:02:14;98905.41;;;-1.23;100.00
70304;BME280;57712;48.752;11.348;2023-02-15T04:04:46;98901.56;;;-1.53;100.00
70304;BME280;57712;48.752;11.348;2023-02-15T04:07:13;98912.66;;;-1.46;100.00
70304;BME280;57712;48.752;11.348;2023-02-15T04:09:40;98904.84;;;-1.56;100.00
70304;BME280;57712;48.752;11.348;2023-02-15T04:12:25;98909.00;;;-1.28;100.00
70304;BME280;57712;48.752;11.348;2023-02-15T04:14:52;98913.78;;;-1.25;100.00
70304;BME280;57712;48.752;11.348;2023-02-15T04:17:37;98908.56;;;-1.21;100.00
70304;BME280;57712;48.752;11.348;2023-02-15T04:20:05;98901.25;;;-1.29;100.00
70304;BME280;57712;48.752;11.348;2023-02-15T04:22:50;98911.13;;;-1.16;100.00
70304;BME280;57712;48.752;11.348;2023-02-15T04:25:35;98901.22;;;-1.07;100.00
70304;BME280;57712;48.752;11.348;2023-02-15T04:28:02;98906.19;;;-1.00;100.00
70304;BME280;57712;48.752;11.348;2023-02-15T04:30:28;98907.41;;;-1.29;100.00
70304;BME280;57712;48.752;11.348;2023-02-15T04:32:55;98912.25;;;-1.39;100.00
70304;BME280;57712;48.752;11.348;2023-02-15T04:35:23;98907.03;;;-1.58;100.00
70304;BME280;57712;48.752;11.348;2023-02-15T04:37:50;98920.97;;;-1.34;100.00
70304;BME280;57712;48.752;11.348;2023-02-15T04:40:17;98907.03;;;-1.36;100.00
70304;BME280;57712;48.752;11.348;2023-02-15T04:42:47;98913.16;;;-1.22;100.00
70304;BME280;57712;48.752;11.348;2023-02-15T04:45:15;98909.44;;;-1.34;100.00
70304;BME280;57712;48.752;11.348;2023-02-15T04:47:41;98910.41;;;-1.30;100.00
70304;BME280;57712;48.752;11.348;2023-02-15T04:50:08;98906.44;;;-1.10;100.00
70304;BME280;57712;48.752;11.348;2023-02-15T04:52:35;98914.59;;;-1.16;100.00
70304;BME280;57712;48.752;11.348;2023-02-15T04:55:02;98907.84;;;-1.35;100.00
70304;BME280;57712;48.752;11.348;2023-02-15T04:57:29;98908.56;;;-1.21;100.00
70304;BME280;57712;48.752;11.348;2023-02-15T04:59:55;98907.78;;;-1.66;100.00
70304;BME280;57712;48.752;11.348;2023-02-15T05:02:21;98898.16;;;-1.45;100.00
70304;BME280;57712;48.752;11.348;2023-02-15T05:04:48;98904.31;;;-1.22;100.00
70304;BME280;57712;48.752;11.348;2023-02-15T05:07:15;98907.91;;;-1.27;100.00
70304;BME280;57712;48.752;11.348;2023-02-15T05:09:41;98894.03;;;-1.20;100.00
70304;BME280;57712;48.752;11.348;2023-02-15T05:12:08;98901.31;;;-1.21;100.00
70304;BME280;57712;48.752;11.348;2023-02-15T05:14:35;98897.19;;;-1.18;100.00
70304;BME280;57712;48.752;11.348;2023-02-15T05:17:02;98901.22;;;-1.07;100.00
70304;BME280;57712;48.752;11.348;2023-02-15T05:19:29;98896.09;;;-1.17;100.00
70304;BME280;57712;48.752;11.348;2023-02-15T05:21:56;98890.38;;;-1.24;100.00
70304;BME280;57712;48.752;11.348;2023-02-15T05:24:22;98893.16;;;-1.07;100.00
70304;BME280;57712;48.752;11.348;2023-02-15T05:27:10;98890.47;;;-1.07;100.00
70304;BME280;57712;48.752;11.348;2023-02-15T05:29:57;98892.81;;;-1.14;100.00
70304;BME280;57712;48.752;11.348;2023-02-15T05:32:24;98892.31;;;-1.16;100.00
70304;BME280;57712;48.752;11.348;2023-02-15T05:34:51;98895.06;;;-1.07;100.00
70304;BME280;57712;48.752;11.348;2023-02-15T05:37:17;98900.19;;;-1.20;100.00
70304;BME280;57712;48.752;11.348;2023-02-15T05:39:44;98899.84;;;-1.27;100.00
70304;BME280;57712;48.752;11.348;2023-02-15T05:42:11;98899.97;;;-1.32;100.00
70304;BME280;57712;48.752;11.348;2023-02-15T05:44:38;98894.66;;;-1.23;100.00
70304;BME280;57712;48.752;11.348;2023-02-15T05:47:04;98897.41;;;-1.14;100.00
70304;BME280;57712;48.752;11.348;2023-02-15T05:49:33;98894.56;;;-1.09;100.00
70304;BME280;57712;48.752;11.348;2023-02-15T05:52:00;98897.13;;;-1.04;100.00
70304;BME280;57712;48.752;11.348;2023-02-15T05:54:26;98890.66;;;-1.03;100.00
70304;BME280;57712;48.752;11.348;2023-02-15T05:56:54;98897.75;;;-1.07;100.00
70304;BME280;57712;48.752;11.348;2023-02-15T05:59:20;98894.44;;;-1.27;100.00
70304;BME280;57712;48.752;11.348;2023-02-15T06:01:47;98902.72;;;-1.23;100.00
70304;BME280;57712;48.752;11.348;2023-02-15T06:04:14;98901.69;;;-1.05;100.00
70304;BME280;57712;48.752;11.348;2023-02-15T06:06:40;98913.25;;;-1.04;100.00
70304;BME280;57712;48.752;11.348;2023-02-15T06:09:07;98914.88;;;-1.03;100.00
70304;BME280;57712;48.752;11.348;2023-02-15T06:11:33;98918.28;;;-1.11;100.00
70304;BME280;57712;48.752;11.348;2023-02-15T06:14:00;98918.53;;;-1.22;100.00
70304;BME280;57712;48.752;11.348;2023-02-15T06:16:26;98921.94;;;-1.30;100.00
70304;BME280;57712;48.752;11.348;2023-02-15T06:18:53;98926.72;;;-1.27;100.00
70304;BME280;57712;48.752;11.348;2023-02-15T06:21:20;98926.94;;;-1.37;100.00
70304;BME280;57712;48.752;11.348;2023-02-15T06:23:46;98927.16;;;-1.33;100.00
70304;BME280;57712;48.752;11.348;2023-02-15T06:26:13;98932.09;;;-1.27;100.00
70304;BME280;57712;48.752;11.348;2023-02-15T06:28:39;98932.94;;;-1.18;100.00
70304;BME280;57712;48.752;11.348;2023-02-15T06:31:07;98931.72;;;-1.34;100.00
70304;BME280;57712;48.752;11.348;2023-02-15T06:33:34;98936.06;;;-1.24;100.00
70304;BME280;57712;48.752;11.348;2023-02-15T06:36:01;98938.72;;;-1.47;100.00
70304;BME280;57712;48.752;11.348;2023-02-15T06:38:30;98937.22;;;-1.39;100.00
70304;BME280;57712;48.752;11.348;2023-02-15T06:40:57;98925.91;;;-1.27;100.00
70304;BME280;57712;48.752;11.348;2023-02-15T06:43:24;98925.75;;;-1.31;100.00
70304;BME280;57712;48.752;11.348;2023-02-15T06:45:50;98929.63;;;-1.59;100.00
70304;BME280;57712;48.752;11.348;2023-02-15T06:48:17;98927.97;;;-1.47;100.00
70304;BME280;57712;48.752;11.348;2023-02-15T06:50:44;98932.09;;;-1.27;100.00
70304;BME280;57712;48.752;11.348;2023-02-15T06:53:10;98927.38;;;-1.43;100.00
70304;BME280;57712;48.752;11.348;2023-02-15T06:55:37;98926.34;;;-1.56;100.00
70304;BME280;57712;48.752;11.348;2023-02-15T06:58:04;98931.97;;;-1.44;100.00
70304;BME280;57712;48.752;11.348;2023-02-15T07:00:30;98933.56;;;-1.43;100.00
70304;BME280;57712;48.752;11.348;2023-02-15T07:02:57;98927.19;;;-1.47;100.00
70304;BME280;57712;48.752;11.348;2023-02-15T07:05:25;98918.53;;;-1.66;100.00
70304;BME280;57712;48.752;11.348;2023-02-15T07:07:58;98921.06;;;-1.61;100.00
70304;BME280;57712;48.752;11.348;2023-02-15T07:10:26;98930.06;;;-1.66;100.00
70304;BME280;57712;48.752;11.348;2023-02-15T07:12:53;98929.38;;;-1.49;100.00
70304;BME280;57712;48.752;11.348;2023-02-15T07:15:21;98925.47;;;-1.65;100.00
70304;BME280;57712;48.752;11.348;2023-02-15T07:17:48;98927.06;;;-1.64;100.00
70304;BME280;57712;48.752;11.348;2023-02-15T07:20:20;98943.31;;;-1.47;100.00
70304;BME280;57712;48.752;11.348;2023-02-15T07:22:47;98937.38;;;-1.58;100.00
70304;BME280;57712;48.752;11.348;2023-02-15T07:25:16;98934.03;;;-1.63;100.00
70304;BME280;57712;48.752;11.348;2023-02-15T07:27:43;98939.97;;;-1.53;100.00
70304;BME280;57712;48.752;11.348;2023-02-15T07:30:13;98938.16;;;-1.57;100.00
70304;BME280;57712;48.752;11.348;2023-02-15T07:32:40;98936.72;;;-1.63;100.00
70304;BME280;57712;48.752;11.348;2023-02-15T07:35:31;98934.50;;;-1.61;100.00
70304;BME280;57712;48.752;11.348;2023-02-15T07:37:57;98927.94;;;-1.69;100.00
70304;BME280;57712;48.752;11.348;2023-02-15T07:40:24;98927.97;;;-1.47;100.00
70304;BME280;57712;48.752;11.348;2023-02-15T07:42:51;98922.72;;;-1.74;100.00
70304;BME280;57712;48.752;11.348;2023-02-15T07:45:20;98922.13;;;-1.26;100.00
70304;BME280;57712;48.752;11.348;2023-02-15T07:47:47;98918.16;;;-1.29;100.00
70304;BME280;57712;48.752;11.348;2023-02-15T07:50:13;98916.34;;;-1.20;100.00
70304;BME280;57712;48.752;11.348;2023-02-15T07:52:40;98917.44;;;-1.21;100.00
70304;BME280;57712;48.752;11.348;2023-02-15T07:55:07;98919.50;;;-1.18;100.00
70304;BME280;57712;48.752;11.348;2023-02-15T07:57:34;98927.38;;;-1.43;100.00
70304;BME280;57712;48.752;11.348;2023-02-15T08:00:02;98927.94;;;-1.10;100.00
70304;BME280;57712;48.752;11.348;2023-02-15T08:02:29;98921.22;;;-1.22;100.00
70304;BME280;57712;48.752;11.348;2023-02-15T08:04:56;98919.63;;;-1.00;100.00
70304;BME280;57712;48.752;11.348;2023-02-15T08:07:23;98921.09;;;-1.17;100.00
70304;BME280;57712;48.752;11.348;2023-02-15T08:09:49;98929.66;;;-1.14;100.00
70304;BME280;57712;48.752;11.348;2023-02-15T08:12:16;98925.88;;;-1.13;100.00
70304;BME280;57712;48.752;11.348;2023-02-15T08:14:43;98919.75;;;-1.28;100.00
70304;BME280;57712;48.752;11.348;2023-02-15T08:17:09;98923.22;;;-1.27;100.00
70304;BME280;57712;48.752;11.348;2023-02-15T08:19:36;98919.16;;;-1.25;100.00
70304;BME280;57712;48.752;11.348;2023-02-15T08:22:07;98924.63;;;-1.07;100.00
70304;BME280;57712;48.752;11.348;2023-02-15T08:24:35;98925.66;;;-1.17;100.00
70304;BME280;57712;48.752;11.348;2023-02-15T08:27:06;98926.78;;;-1.18;100.00
70304;BME280;57712;48.752;11.348;2023-02-15T08:29:34;98932.22;;;-1.09;100.00
70304;BME280;57712;48.752;11.348;2023-02-15T08:32:04;98929.38;;;-1.04;100.00
70304;BME280;57712;48.752;11.348;2023-02-15T08:34:33;98925.63;;;-1.03;100.00
70304;BME280;57712;48.752;11.348;2023-02-15T08:37:01;98917.78;;;-0.91;100.00
70304;BME280;57712;48.752;11.348;2023-02-15T08:39:28;98923.22;;;-0.82;100.00
70304;BME280;57712;48.752;11.348;2023-02-15T08:41:55;98916.31;;;-0.97;100.00
70304;BME280;57712;48.752;11.348;2023-02-15T08:44:22;98913.44;;;-1.01;100.00
70304;BME280;57712;48.752;11.348;2023-02-15T08:46:49;98913.41;;;-1.09;100.00
70304;BME280;57712;48.752;11.348;2023-02-15T08:49:18;98914.66;;;-1.07;100.00
70304;BME280;57712;48.752;11.348;2023-02-15T08:51:46;98914.63;;;-0.84;100.00
70304;BME280;57712;48.752;11.348;2023-02-15T08:54:16;98916.53;;;-0.85;100.00
70304;BME280;57712;48.752;11.348;2023-02-15T08:56:44;98916.19;;;-0.92;100.00
70304;BME280;57712;48.752;11.348;2023-02-15T08:59:19;98910.50;;;-0.91;100.00
70304;BME280;57712;48.752;11.348;2023-02-15T09:01:47;98907.44;;;-0.98;100.00
70304;BME280;57712;48.752;11.348;2023-02-15T09:04:15;98913.00;;;-0.94;100.00
70304;BME280;57712;48.752;11.348;2023-02-15T09:06:44;98909.50;;;-0.72;100.00
70304;BME280;57712;48.752;11.348;2023-02-15T09:09:14;98911.41;;;-0.64;100.00
70304;BME280;57712;48.752;11.348;2023-02-15T09:11:43;98911.56;;;-0.69;100.00
70304;BME280;57712;48.752;11.348;2023-02-15T09:14:14;98916.78;;;-0.64;100.00
70304;BME280;57712;48.752;11.348;2023-02-15T09:16:43;98905.06;;;-0.68;100.00
70304;BME280;57712;48.752;11.348;2023-02-15T09:19:16;98908.78;;;-0.47;100.00
70304;BME280;57712;48.752;11.348;2023-02-15T09:21:44;98907.66;;;-0.54;100.00
70304;BME280;57712;48.752;11.348;2023-02-15T09:24:13;98920.53;;;-0.43;100.00
70304;BME280;57712;48.752;11.348;2023-02-15T09:26:42;98902.44;;;-0.60;100.00
70304;BME280;57712;48.752;11.348;2023-02-15T09:29:10;98912.72;;;-0.62;100.00
70304;BME280;57712;48.752;11.348;2023-02-15T09:31:40;98908.63;;;-0.50;100.00
70304;BME280;57712;48.752;11.348;2023-02-15T09:34:16;98909.88;;;-0.88;100.00
70304;BME280;57712;48.752;11.348;2023-02-15T09:36:44;98910.88;;;-0.75;100.00
70304;BME280;57712;48.752;11.348;2023-02-15T09:39:14;98911.44;;;-0.55;100.00
70304;BME280;57712;48.752;11.348;2023-02-15T09:44:52;98900.22;;;-0.57;100.00
70304;BME280;57712;48.752;11.348;2023-02-15T09:56:21;98919.09;;;-0.80;100.00
70304;BME280;57712;48.752;11.348;2023-02-15T10:07:05;98922.13;;;-0.33;100.00
70304;BME280;57712;48.752;11.348;2023-02-15T10:09:49;98918.56;;;-0.20;100.00
70304;BME280;57712;48.752;11.348;2023-02-15T10:20:37;98918.81;;;-0.39;100.00
70304;BME280;57712;48.752;11.348;2023-02-15T10:23:16;98913.75;;;-0.40;100.00
70304;BME280;57712;48.752;11.348;2023-02-15T10:26:16;98912.19;;;-0.24;100.00
70304;BME280;57712;48.752;11.348;2023-02-15T10:31:47;98916.97;;;-0.12;100.00
70304;BME280;57712;48.752;11.348;2023-02-15T10:34:17;98919.25;;;0.03;100.00
70304;BME280;57712;48.752;11.348;2023-02-15T10:36:58;98909.72;;;0.06;100.00
70304;BME280;57712;48.752;11.348;2023-02-15T10:39:44;98905.78;;;0.12;100.00
70304;BME280;57712;48.752;11.348;2023-02-15T10:53:17;98889.41;;;-0.18;100.00
70304;BME280;57712;48.752;11.348;2023-02-15T10:56:23;98885.28;;;-0.24;100.00
70304;BME280;57712;48.752;11.348;2023-02-15T11:01:59;98878.84;;;0.12;100.00
70304;BME280;57712;48.752;11.348;2023-02-15T11:07:06;98857.78;;;0.22;100.00
70304;BME280;57712;48.752;11.348;2023-02-15T11:09:44;98860.44;;;0.31;100.00
70304;BME280;57712;48.752;11.348;2023-02-15T11:12:16;98848.41;;;0.54;100.00
70304;BME280;57712;48.752;11.348;2023-02-15T11:14:54;98841.72;;;0.52;100.00
70304;BME280;57712;48.752;11.348;2023-02-15T11:17:50;98845.88;;;0.49;100.00
70304;BME280;57712;48.752;11.348;2023-02-15T11:22:56;98846.19;;;0.31;100.00
70304;BME280;57712;48.752;11.348;2023-02-15T11:25:28;98846.97;;;0.31;100.00
70304;BME280;57712;48.752;11.348;2023-02-15T11:27:56;98845.06;;;0.49;100.00
70304;BME280;57712;48.752;11.348;2023-02-15T11:30:42;98847.94;;;0.26;100.00
70304;BME280;57712;48.752;11.348;2023-02-15T11:33:18;98848.56;;;0.06;100.00
70304;BME280;57712;48.752;11.348;2023-02-15T11:36:00;98834.16;;;0.11;100.00
70304;BME280;57712;48.752;11.348;2023-02-15T11:38:32;98830.66;;;0.19;100.00
70304;BME280;57712;48.752;11.348;2023-02-15T11:41:05;98821.94;;;0.31;100.00
70304;BME280;57712;48.752;11.348;2023-02-15T11:43:47;98813.97;;;0.60;100.00
70304;BME280;57712;48.752;11.348;2023-02-15T11:46:15;98818.06;;;0.75;100.00
70304;BME280;57712;48.752;11.348;2023-02-15T11:48:42;98816.97;;;0.76;100.00
70304;BME280;57712;48.752;11.348;2023-02-15T11:51:12;98811.72;;;0.71;100.00
70304;BME280;57712;48.752;11.348;2023-02-15T11:53:40;98806.50;;;0.74;100.00
70304;BME280;57712;48.752;11.348;2023-02-15T11:56:13;98806.78;;;0.81;100.00
70304;BME280;57712;48.752;11.348;2023-02-15T11:58:59;98795.38;;;0.76;100.00
70304;BME280;57712;48.752;11.348;2023-02-15T12:01:35;98792.56;;;0.64;100.00
70304;BME280;57712;48.752;11.348;2023-02-15T12:04:25;98788.75;;;0.65;100.00
70304;BME280;57712;48.752;11.348;2023-02-15T12:07:00;98792.38;;;0.77;100.00
70304;BME280;57712;48.752;11.348;2023-02-15T12:09:37;98786.91;;;0.95;100.00
70304;BME280;57712;48.752;11.348;2023-02-15T12:12:31;98783.59;;;0.89;100.00
70304;BME280;57712;48.752;11.348;2023-02-15T12:15:09;98777.03;;;1.07;100.00
70304;BME280;57712;48.752;11.348;2023-02-15T12:17:51;98772.91;;;1.01;100.00
70304;BME280;57712;48.752;11.348;2023-02-15T12:22:51;98774.97;;;1.04;100.00
70304;BME280;57712;48.752;11.348;2023-02-15T12:28:20;98785.50;;;0.89;100.00
70304;BME280;57712;48.752;11.348;2023-02-15T12:30:49;98781.59;;;1.15;100.00
70304;BME280;57712;48.752;11.348;2023-02-15T12:33:44;98776.22;;;1.07;100.00
70304;BME280;57712;48.752;11.348;2023-02-15T12:42:14;98769.50;;;1.22;100.00
70304;BME280;57712;48.752;11.348;2023-02-15T12:44:57;98761.84;;;1.53;100.00
70304;BME280;57712;48.752;11.348;2023-02-15T12:47:25;98759.41;;;1.60;100.00
70304;BME280;57712;48.752;11.348;2023-02-15T12:50:34;98755.44;;;1.07;100.00
70304;BME280;57712;48.752;11.348;2023-02-15T12:53:20;98753.94;;;1.19;100.00
70304;BME280;57712;48.752;11.348;2023-02-15T12:56:03;98758.59;;;1.39;100.00
70304;BME280;57712;48.752;11.348;2023-02-15T12:58:35;98754.38;;;1.29;100.00
70304;BME280;57712;48.752;11.348;2023-02-15T13:03:38;98757.84;;;1.59;100.00
70304;BME280;57712;48.752;11.348;2023-02-15T13:06:05;98750.88;;;1.79;100.00
70304;BME280;57712;48.752;11.348;2023-02-15T13:11:11;98745.84;;;1.48;100.00
70304;BME280;57712;48.752;11.348;2023-02-15T13:13:51;98740.44;;;1.48;100.00
70304;BME280;57712;48.752;11.348;2023-02-15T13:16:27;98737.81;;;1.60;100.00
70304;BME280;57712;48.752;11.348;2023-02-15T13:18:57;98727.94;;;1.64;100.00
70304;BME280;57712;48.752;11.348;2023-02-15T13:21:27;98719.81;;;1.43;100.00
70304;BME280;57712;48.752;11.348;2023-02-15T13:24:01;98719.81;;;1.43;100.00
70304;BME280;57712;48.752;11.348;2023-02-15T13:26:31;98720.88;;;1.30;100.00
70304;BME280;57712;48.752;11.348;2023-02-15T13:29:04;98718.16;;;1.30;100.00
70304;BME280;57712;48.752;11.348;2023-02-15T13:31:32;98713.91;;;1.50;100.00
70304;BME280;57712;48.752;11.348;2023-02-15T13:34:03;98717.13;;;1.64;100.00
70304;BME280;57712;48.752;11.348;2023-02-15T13:39:42;98713.16;;;1.83;100.00
70304;BME280;57712;48.752;11.348;2023-02-15T13:42:33;98715.94;;;1.74;100.00
70304;BME280;57712;48.752;11.348;2023-02-15T13:47:55;98717.78;;;1.61;100.00
70304;BME280;57712;48.752;11.348;2023-02-15T13:56:40;98708.84;;;1.69;100.00
70304;BME280;57712;48.752;11.348;2023-02-15T14:05:15;98703.22;;;1.74;100.00
70304;BME280;57712;48.752;11.348;2023-02-15T14:08:07;98699.00;;;1.86;100.00
70304;BME280;57712;48.752;11.348;2023-02-15T14:10:43;98703.50;;;1.82;100.00
70304;BME280;57712;48.752;11.348;2023-02-15T14:13:39;98703.84;;;1.59;100.00
70304;BME280;57712;48.752;11.348;2023-02-15T14:18:48;98707.38;;;1.72;100.00
70304;BME280;57712;48.752;11.348;2023-02-15T14:29:20;98706.31;;;1.85;100.00
70304;BME280;57712;48.752;11.348;2023-02-15T14:32:01;98698.94;;;1.73;100.00
70304;BME280;57712;48.752;11.348;2023-02-15T14:34:41;98700.53;;;1.54;100.00
70304;BME280;57712;48.752;11.348;2023-02-15T14:37:13;98701.56;;;1.82;100.00
70304;BME280;57712;48.752;11.348;2023-02-15T14:40:00;98700.38;;;1.92;100.00
70304;BME280;57712;48.752;11.348;2023-02-15T14:42:57;98706.84;;;1.79;100.00
70304;BME280;57712;48.752;11.348;2023-02-15T14:45:28;98702.50;;;1.65;100.00
70304;BME280;57712;48.752;11.348;2023-02-15T14:48:16;98706.06;;;1.57;100.00
70304;BME280;57712;48.752;11.348;2023-02-15T14:50:49;98706.59;;;1.71;100.00
70304;BME280;57712;48.752;11.348;2023-02-15T14:55:42;98704.06;;;1.66;100.00
70304;BME280;57712;48.752;11.348;2023-02-15T14:58:12;98705.06;;;1.62;100.00
70304;BME280;57712;48.752;11.348;2023-02-15T15:00:40;98705.00;;;1.70;100.00
70304;BME280;57712;48.752;11.348;2023-02-15T15:03:21;98706.19;;;1.40;100.00
70304;BME280;57712;48.752;11.348;2023-02-15T15:05:55;98703.81;;;1.80;100.00
70304;BME280;57712;48.752;11.348;2023-02-15T15:08:34;98699.63;;;1.70;100.00